Terminal Aerodrome Forecast
Issued by NWS

Home | Current Version | Previous Version | Text Only | Print | Product List | Glossary On
Versions: 1 2 3 4 5 6 7 8 9 10 11 12 13 14
000
FTUS45 KGJT 210520
TAFDRO
TAF
KDRO 210520Z 2106/2206 07003KT P6SM FEW120
     FM211800 24004KT P6SM VCTS SCT060CB BKN200
     FM212100 29008KT P6SM VCTS SCT070CB BKN110
     FM220000 34007KT P6SM SCT070 BKN090
     FM220200 04005KT P6SM SCT070 BKN090=

USA.gov is the U.S. government's official web portal to all federal, state and local government web resources and services.